createdAt,value
2019-04-16T00:00:34.105Z,53.10
2019-04-16T00:01:34.092Z,52.69
2019-04-16T00:02:34.134Z,53.00
2019-04-16T00:03:34.091Z,52.69
2019-04-16T00:04:34.063Z,52.79
2019-04-16T00:05:34.103Z,53.10
2019-04-16T00:06:34.043Z,53.00
2019-04-16T00:07:34.025Z,53.41
2019-04-16T00:08:34.014Z,52.89
2019-04-16T00:09:34.004Z,52.89
2019-04-16T00:10:34.058Z,53.00
2019-04-16T00:11:33.975Z,52.89
2019-04-16T00:12:33.977Z,52.69
2019-04-16T00:13:33.976Z,52.89
2019-04-16T00:14:33.944Z,53.20
2019-04-16T00:15:33.984Z,52.89
2019-04-16T00:16:33.986Z,53.10
2019-04-16T00:17:33.914Z,53.30
2019-04-16T00:18:33.974Z,53.20
2019-04-16T00:19:34.725Z,52.79
2019-04-16T00:20:36.698Z,52.69
2019-04-16T00:21:33.866Z,52.89
2019-04-16T00:22:33.918Z,53.10
2019-04-16T00:23:33.854Z,53.00
2019-04-16T00:24:33.844Z,53.20
2019-04-16T00:25:33.825Z,53.10
2019-04-16T00:26:33.875Z,53.02
2019-04-16T00:27:33.807Z,52.71
2019-04-16T00:28:33.794Z,53.02
2019-04-16T00:29:33.857Z,53.02
2019-04-16T00:30:35.797Z,53.12
2019-04-16T00:31:34.422Z,53.12
2019-04-16T00:32:33.748Z,53.43
2019-04-16T00:33:33.746Z,53.74
2019-04-16T00:34:33.802Z,53.23
2019-04-16T00:35:33.724Z,53.74
2019-04-16T00:36:33.708Z,53.74
2019-04-16T00:37:33.693Z,53.33
2019-04-16T00:38:40.651Z,53.53
2019-04-16T00:39:34.738Z,53.43
2019-04-16T00:40:33.665Z,53.02
2019-04-16T00:41:33.645Z,53.23
2019-04-16T00:42:33.735Z,53.23
2019-04-16T00:43:33.647Z,53.43
2019-04-16T00:44:33.625Z,53.23
2019-04-16T00:45:33.605Z,53.53
2019-04-16T00:46:33.596Z,53.53
2019-04-16T00:47:33.597Z,53.53
2019-04-16T00:48:33.638Z,53.23
2019-04-16T00:49:33.565Z,53.56
2019-04-16T00:50:33.545Z,53.35
2019-04-16T00:51:33.536Z,53.56
2019-04-16T00:52:36.726Z,53.25
2019-04-16T00:53:33.576Z,53.45
2019-04-16T00:54:33.506Z,52.84
2019-04-16T00:55:33.497Z,53.25
2019-04-16T00:56:33.486Z,53.15
2019-04-16T00:57:33.475Z,52.94
2019-04-16T00:58:33.527Z,52.64
2019-04-16T00:59:33.455Z,52.94
2019-04-16T01:00:33.445Z,52.84
2019-04-16T01:01:33.427Z,52.84
2019-04-16T01:02:33.425Z,52.84
2019-04-16T01:03:33.429Z,52.94
2019-04-16T01:04:33.489Z,53.25
2019-04-16T01:05:35.259Z,52.94
2019-04-16T01:06:33.389Z,53.35
2019-04-16T01:07:33.375Z,53.15
2019-04-16T01:08:33.355Z,53.25
2019-04-16T01:09:33.376Z,53.45
2019-04-16T01:10:33.336Z,53.25
2019-04-16T01:11:33.329Z,53.25
2019-04-16T01:12:33.314Z,53.25
2019-04-16T01:13:33.296Z,52.84
2019-04-16T01:14:33.331Z,53.05
2019-04-16T01:15:33.302Z,53.25
2019-04-16T01:16:33.613Z,53.25
2019-04-16T01:17:33.440Z,53.45
2019-04-16T01:18:33.255Z,52.94
2019-04-16T01:19:33.239Z,52.84
2019-04-16T01:20:33.295Z,53.35
2019-04-16T01:21:33.215Z,53.97
2019-04-16T01:22:33.205Z,53.45
2019-04-16T01:23:33.201Z,53.45
2019-04-16T01:24:33.176Z,53.15
2019-04-16T01:25:33.180Z,53.35
2019-04-16T01:26:33.237Z,53.05
2019-04-16T01:27:33.167Z,53.45
2019-04-16T01:28:33.158Z,52.94
2019-04-16T01:29:33.854Z,53.45
2019-04-16T01:30:36.304Z,53.15
2019-04-16T01:31:33.107Z,53.56
2019-04-16T01:32:33.156Z,53.15
2019-04-16T01:33:33.076Z,53.28
2019-04-16T01:34:33.067Z,53.58
2019-04-16T01:35:33.055Z,53.38
2019-04-16T01:36:33.059Z,53.38
2019-04-16T01:37:33.090Z,53.38
2019-04-16T01:38:33.026Z,53.28
2019-04-16T01:39:33.031Z,53.58
2019-04-16T01:40:33.006Z,52.86
2019-04-16T01:41:33.064Z,53.28
2019-04-16T01:42:32.994Z,53.38
2019-04-16T01:43:32.976Z,53.28
2019-04-16T01:44:32.980Z,53.79
2019-04-16T01:45:32.976Z,53.69
2019-04-16T01:46:33.610Z,53.48
2019-04-16T01:47:35.941Z,53.79
2019-04-16T01:48:33.038Z,53.48
2019-04-16T01:49:32.907Z,53.79
2019-04-16T01:50:32.895Z,53.89
2019-04-16T01:51:32.884Z,54.00
2019-04-16T01:52:32.875Z,53.79
2019-04-16T01:53:32.869Z,53.89
2019-04-16T01:54:32.936Z,54.10
2019-04-16T01:55:32.845Z,54.30
2019-04-16T01:56:32.834Z,54.00
2019-04-16T01:57:32.826Z,54.02
2019-04-16T01:58:33.856Z,54.22
2019-04-16T01:59:35.627Z,53.92
2019-04-16T02:00:32.850Z,54.22
2019-04-16T02:01:32.836Z,54.02
2019-04-16T02:02:32.757Z,54.02
2019-04-16T02:03:32.757Z,54.22
2019-04-16T02:04:32.816Z,53.81
2019-04-16T02:05:32.726Z,54.22
2019-04-16T02:06:32.726Z,54.02
2019-04-16T02:07:32.706Z,54.22
2019-04-16T02:08:32.705Z,54.22
2019-04-16T02:09:34.742Z,54.02
2019-04-16T02:10:32.759Z,54.43
2019-04-16T02:11:32.666Z,54.64
2019-04-16T02:12:32.677Z,54.64
2019-04-16T02:13:32.646Z,54.02
2019-04-16T02:14:32.636Z,54.64
2019-04-16T02:15:32.629Z,54.53
2019-04-16T02:16:32.646Z,55.15
2019-04-16T02:17:32.659Z,54.74
2019-04-16T02:18:32.586Z,54.87
2019-04-16T02:19:33.497Z,54.97
2019-04-16T02:20:32.580Z,55.38
2019-04-16T02:21:32.556Z,54.97
2019-04-16T02:22:32.548Z,55.49
2019-04-16T02:23:32.596Z,55.28
2019-04-16T02:24:32.530Z,55.38
2019-04-16T02:25:32.507Z,55.49
2019-04-16T02:26:32.498Z,55.59
2019-04-16T02:27:32.576Z,55.82
2019-04-16T02:28:32.477Z,55.82
2019-04-16T02:29:32.475Z,56.23
2019-04-16T02:30:37.340Z,56.23
2019-04-16T02:31:33.446Z,56.44
2019-04-16T02:32:32.438Z,56.44
2019-04-16T02:33:32.491Z,56.44
2019-04-16T02:34:32.418Z,56.23
2019-04-16T02:35:32.417Z,56.57
2019-04-16T02:36:32.398Z,56.46
2019-04-16T02:37:36.185Z,56.98
2019-04-16T02:38:33.450Z,56.88
2019-04-16T02:39:47.835Z,56.77
2019-04-16T02:40:33.347Z,56.67
2019-04-16T02:41:32.356Z,56.77
2019-04-16T02:42:32.374Z,56.98
2019-04-16T02:43:39.623Z,56.98
2019-04-16T02:44:33.368Z,56.67
2019-04-16T02:45:32.347Z,56.88
2019-04-16T02:46:32.843Z,56.98
2019-04-16T02:47:32.299Z,56.98
2019-04-16T02:48:32.258Z,56.80
2019-04-16T02:49:32.247Z,56.90
2019-04-16T02:50:32.388Z,57.32
2019-04-16T02:51:32.229Z,57.21
2019-04-16T02:52:32.221Z,57.32
2019-04-16T02:53:32.218Z,57.01
2019-04-16T02:54:34.004Z,57.42
2019-04-16T02:55:32.209Z,57.42
2019-04-16T02:56:32.177Z,57.32
2019-04-16T02:57:32.168Z,57.62
2019-04-16T02:58:34.438Z,57.52
2019-04-16T02:59:32.139Z,57.62
2019-04-16T03:00:32.189Z,57.62
2019-04-16T03:01:32.194Z,58.06
2019-04-16T03:02:32.106Z,58.17
2019-04-16T03:03:32.106Z,58.06
2019-04-16T03:04:32.087Z,58.48
2019-04-16T03:05:32.100Z,58.27
2019-04-16T03:06:32.613Z,58.27
2019-04-16T03:07:32.766Z,58.48
2019-04-16T03:08:33.400Z,58.71
2019-04-16T03:09:32.037Z,58.71
2019-04-16T03:10:32.017Z,58.81
2019-04-16T03:11:32.101Z,58.92
2019-04-16T03:12:32.023Z,59.02
2019-04-16T03:13:31.989Z,59.02
2019-04-16T03:14:31.977Z,58.71
2019-04-16T03:15:33.754Z,59.12
2019-04-16T03:16:31.968Z,59.12
2019-04-16T03:17:32.007Z,59.23
2019-04-16T03:18:31.957Z,58.71
2019-04-16T03:19:31.940Z,58.81
2019-04-16T03:20:31.916Z,59.33
2019-04-16T03:21:31.911Z,59.23
2019-04-16T03:22:33.430Z,59.23
2019-04-16T03:23:36.666Z,59.23
2019-04-16T03:24:32.878Z,59.02
2019-04-16T03:25:31.873Z,59.12
2019-04-16T03:26:31.849Z,59.23
2019-04-16T03:27:31.867Z,59.25
2019-04-16T03:28:31.859Z,59.25
2019-04-16T03:29:31.828Z,59.05
2019-04-16T03:30:40.343Z,58.94
2019-04-16T03:31:32.799Z,59.25
2019-04-16T03:32:35.499Z,59.15
2019-04-16T03:33:31.778Z,58.92
2019-04-16T03:34:31.825Z,58.50
2019-04-16T03:35:31.757Z,58.81
2019-04-16T03:36:31.746Z,58.61
2019-04-16T03:37:32.986Z,58.50
2019-04-16T03:38:36.721Z,58.50
2019-04-16T03:39:32.766Z,58.71
2019-04-16T03:40:31.706Z,58.84
2019-04-16T03:41:31.687Z,59.15
2019-04-16T03:42:31.676Z,58.71
2019-04-16T03:43:32.796Z,58.81
2019-04-16T03:44:33.537Z,58.84
2019-04-16T03:45:31.660Z,59.15
2019-04-16T03:46:31.662Z,59.15
2019-04-16T03:47:31.629Z,59.25
2019-04-16T03:48:31.612Z,58.94
2019-04-16T03:49:31.669Z,59.36
2019-04-16T03:50:32.222Z,59.46
2019-04-16T03:51:32.546Z,59.56
2019-04-16T03:52:31.598Z,59.56
2019-04-16T03:53:31.618Z,59.25
2019-04-16T03:54:31.557Z,59.46
2019-04-16T03:55:31.627Z,59.46
2019-04-16T03:56:32.083Z,59.36
2019-04-16T03:57:33.151Z,59.46
2019-04-16T03:58:31.506Z,59.56
2019-04-16T03:59:31.496Z,59.36
2019-04-16T04:00:31.568Z,59.39
2019-04-16T04:01:31.476Z,59.80
2019-04-16T04:02:31.457Z,59.59
2019-04-16T04:03:31.457Z,59.59
2019-04-16T04:04:31.446Z,59.90
2019-04-16T04:05:31.447Z,59.80
2019-04-16T04:06:31.437Z,59.80
2019-04-16T04:07:31.441Z,59.59
2019-04-16T04:08:31.416Z,59.59
2019-04-16T04:09:31.386Z,59.69
2019-04-16T04:10:36.792Z,60.11
2019-04-16T04:11:32.366Z,60.31
2019-04-16T04:12:31.377Z,60.00
2019-04-16T04:13:31.379Z,60.21
2019-04-16T04:14:31.336Z,60.21
2019-04-16T04:15:31.316Z,60.21
2019-04-16T04:16:33.522Z,60.31
2019-04-16T04:17:31.324Z,60.00
2019-04-16T04:18:31.335Z,59.90
2019-04-16T04:19:31.276Z,60.21
2019-04-16T04:20:31.277Z,59.90
2019-04-16T04:21:31.256Z,59.90
2019-04-16T04:22:31.261Z,60.00
2019-04-16T04:23:31.269Z,59.80
2019-04-16T04:24:32.112Z,60.00
2019-04-16T04:25:36.053Z,59.69
2019-04-16T04:26:32.198Z,59.39
2019-04-16T04:27:31.195Z,59.39
2019-04-16T04:28:31.178Z,59.49
2019-04-16T04:29:31.207Z,59.59
2019-04-16T04:30:31.188Z,59.69
2019-04-16T04:31:32.300Z,59.80
2019-04-16T04:32:32.494Z,59.90
2019-04-16T04:33:31.135Z,59.69
2019-04-16T04:34:31.116Z,59.59
2019-04-16T04:35:31.141Z,60.11
2019-04-16T04:36:31.098Z,60.00
2019-04-16T04:37:31.973Z,60.00
2019-04-16T04:38:33.693Z,59.59
2019-04-16T04:39:32.064Z,59.80
2019-04-16T04:40:43.688Z,59.80
2019-04-16T04:41:32.036Z,59.49
2019-04-16T04:42:31.047Z,59.69
2019-04-16T04:43:31.927Z,59.90
2019-04-16T04:44:33.591Z,59.93
2019-04-16T04:45:31.998Z,60.14
2019-04-16T04:46:30.984Z,60.24
2019-04-16T04:47:31.018Z,60.24
2019-04-16T04:48:30.966Z,60.65
2019-04-16T04:49:31.170Z,60.44
2019-04-16T04:50:32.417Z,60.65
2019-04-16T04:51:30.955Z,60.44
2019-04-16T04:52:30.939Z,60.44
2019-04-16T04:53:30.934Z,60.34
2019-04-16T04:54:30.896Z,60.44
2019-04-16T04:55:30.894Z,60.34
2019-04-16T04:56:30.889Z,60.44
2019-04-16T04:57:31.894Z,59.93
2019-04-16T04:58:33.716Z,59.93
2019-04-16T04:59:30.859Z,60.03
2019-04-16T05:00:30.834Z,60.24
2019-04-16T05:01:30.826Z,60.11
2019-04-16T05:02:30.819Z,60.42
2019-04-16T05:03:30.835Z,60.11
2019-04-16T05:04:30.805Z,59.80
2019-04-16T05:05:30.785Z,60.00
2019-04-16T05:06:30.774Z,59.80
2019-04-16T05:07:30.767Z,59.90
2019-04-16T05:08:30.747Z,60.00
2019-04-16T05:09:35.367Z,60.00
2019-04-16T05:10:31.724Z,60.11
2019-04-16T05:11:30.718Z,60.00
2019-04-16T05:12:30.696Z,60.21
2019-04-16T05:13:30.695Z,60.11
2019-04-16T05:14:30.699Z,59.90
2019-04-16T05:15:30.745Z,59.69
2019-04-16T05:16:31.582Z,60.00
2019-04-16T05:17:30.678Z,59.80
2019-04-16T05:18:30.645Z,60.00
2019-04-16T05:19:30.635Z,59.49
2019-04-16T05:20:30.677Z,59.80
2019-04-16T05:21:30.605Z,60.00
2019-04-16T05:22:32.999Z,59.46
2019-04-16T05:23:30.589Z,59.15
2019-04-16T05:24:30.644Z,58.81
2019-04-16T05:25:34.162Z,58.48
2019-04-16T05:26:30.545Z,57.93
2019-04-16T05:27:30.545Z,57.09
2019-04-16T05:28:30.535Z,55.62
2019-04-16T05:29:30.525Z,55.38
2019-04-16T05:30:30.549Z,54.41
2019-04-16T05:31:31.197Z,53.56
2019-04-16T05:32:34.032Z,53.53
2019-04-16T05:33:30.475Z,52.69
2019-04-16T05:34:30.463Z,51.74
2019-04-16T05:35:30.468Z,51.64
2019-04-16T05:36:30.450Z,51.74
2019-04-16T05:37:30.485Z,51.10
2019-04-16T05:38:30.425Z,51.41
2019-04-16T05:39:30.405Z,51.31
2019-04-16T05:40:34.369Z,51.07
2019-04-16T05:41:30.385Z,51.33
2019-04-16T05:42:30.435Z,51.66
2019-04-16T05:43:30.933Z,52.64
2019-04-16T05:44:32.851Z,53.48
2019-04-16T05:45:30.408Z,54.53
2019-04-16T05:46:30.344Z,55.18
2019-04-16T05:47:30.405Z,55.82
2019-04-16T05:48:30.313Z,56.26
2019-04-16T05:49:30.319Z,56.67
2019-04-16T05:50:30.298Z,57.11
2019-04-16T05:51:31.480Z,57.32
2019-04-16T05:52:32.331Z,57.62
2019-04-16T05:53:31.318Z,57.76
2019-04-16T05:54:30.259Z,57.76
2019-04-16T05:55:30.235Z,57.86
2019-04-16T05:56:30.225Z,58.27
2019-04-16T05:57:30.215Z,58.17
2019-04-16T05:58:31.012Z,58.27
2019-04-16T05:59:33.576Z,58.27
2019-04-16T06:00:30.184Z,58.48
2019-04-16T06:01:30.166Z,58.27
2019-04-16T06:02:30.155Z,58.58
2019-04-16T06:03:30.236Z,58.27
2019-04-16T06:04:30.145Z,58.37
2019-04-16T06:05:30.127Z,58.27
2019-04-16T06:06:31.788Z,58.27
2019-04-16T06:07:30.173Z,57.96
2019-04-16T06:08:30.108Z,57.65
2019-04-16T06:09:30.205Z,58.04
2019-04-16T06:10:30.065Z,57.32
2019-04-16T06:11:35.710Z,57.01
2019-04-16T06:12:32.555Z,57.21
2019-04-16T06:13:30.060Z,56.90
2019-04-16T06:14:30.026Z,57.21
2019-04-16T06:15:30.085Z,57.39
2019-04-16T06:16:31.157Z,57.39
2019-04-16T06:17:32.223Z,57.39
2019-04-16T06:18:29.985Z,57.26
2019-04-16T06:19:29.975Z,56.21
2019-04-16T06:20:29.963Z,55.66
2019-04-16T06:21:29.954Z,54.79
2019-04-16T06:22:30.259Z,53.81
2019-04-16T06:23:32.646Z,52.64
2019-04-16T06:24:32.401Z,51.28
2019-04-16T06:25:30.906Z,50.93
2019-04-16T06:26:29.898Z,49.77
2019-04-16T06:27:29.946Z,49.55
2019-04-16T06:28:36.928Z,48.81
2019-04-16T06:29:29.878Z,48.58
2019-04-16T06:30:32.754Z,48.07
2019-04-16T06:31:29.857Z,47.74
2019-04-16T06:32:29.920Z,47.53
2019-04-16T06:33:29.828Z,47.33
2019-04-16T06:34:29.808Z,47.13
2019-04-16T06:35:42.459Z,47.00
2019-04-16T06:36:30.810Z,46.80
2019-04-16T06:37:29.779Z,46.47
2019-04-16T06:38:29.778Z,46.12
2019-04-16T06:39:30.627Z,45.28
2019-04-16T06:40:32.630Z,44.78
2019-04-16T06:41:40.803Z,44.46
2019-04-16T06:42:30.728Z,44.55
2019-04-16T06:43:29.773Z,44.75
2019-04-16T06:44:32.113Z,44.34
2019-04-16T06:45:36.537Z,44.14
2019-04-16T06:46:30.689Z,44.45
2019-04-16T06:47:29.683Z,43.81
2019-04-16T06:48:29.739Z,44.32
2019-04-16T06:49:29.725Z,44.10
2019-04-16T06:50:32.851Z,43.61
2019-04-16T06:51:31.791Z,43.91
2019-04-16T06:52:29.620Z,44.22
2019-04-16T06:53:30.579Z,44.02
2019-04-16T06:54:32.813Z,44.32
2019-04-16T06:55:29.589Z,43.73
2019-04-16T06:56:29.629Z,44.16
2019-04-16T06:57:29.569Z,44.67
2019-04-16T06:58:29.559Z,44.55
2019-04-16T06:59:30.821Z,44.55
2019-04-16T07:00:34.064Z,43.84
2019-04-16T07:01:30.510Z,44.32
2019-04-16T07:02:29.549Z,43.69
2019-04-16T07:03:32.426Z,43.77
2019-04-16T07:04:30.837Z,43.65
2019-04-16T07:05:32.954Z,43.24
2019-04-16T07:06:29.473Z,42.83
2019-04-16T07:07:39.593Z,43.04
2019-04-16T07:08:37.481Z,42.74
2019-04-16T07:09:40.892Z,42.65
2019-04-16T07:10:43.792Z,43.79
2019-04-16T07:11:30.410Z,43.38
2019-04-16T07:12:29.456Z,43.77
2019-04-16T07:13:29.383Z,43.87
2019-04-16T07:14:29.445Z,43.75
2019-04-16T07:15:29.402Z,42.76
2019-04-16T07:16:29.361Z,43.37
2019-04-16T07:17:32.916Z,42.77
2019-04-16T07:18:29.332Z,43.79
2019-04-16T07:19:29.389Z,44.10
2019-04-16T07:20:29.374Z,43.69
2019-04-16T07:21:29.320Z,44.08
2019-04-16T07:22:29.291Z,43.16
2019-04-16T07:23:29.400Z,43.06
2019-04-16T07:24:30.687Z,43.77
2019-04-16T07:25:30.042Z,43.37
2019-04-16T07:26:29.328Z,43.14
2019-04-16T07:27:29.349Z,43.14
2019-04-16T07:28:29.323Z,42.96
2019-04-16T07:30:30.362Z,43.98
2019-04-16T07:31:33.526Z,44.49
2019-04-16T07:32:30.184Z,43.44
2019-04-16T07:33:29.171Z,43.63
2019-04-16T07:34:29.192Z,43.23
2019-04-16T07:34:34.799Z,43.06
2019-04-16T07:35:29.147Z,42.39
2019-04-16T07:36:29.213Z,42.51
2019-04-16T07:37:32.880Z,43.12
2019-04-16T07:38:29.115Z,43.53
2019-04-16T07:39:29.653Z,43.12
2019-04-16T07:40:29.106Z,42.63
2019-04-16T07:41:29.077Z,43.24
2019-04-16T07:42:29.144Z,43.02
2019-04-16T07:43:31.266Z,42.74
2019-04-16T07:44:29.046Z,43.32
2019-04-16T07:45:29.044Z,42.92
2019-04-16T07:46:29.115Z,43.32
2019-04-16T07:47:29.098Z,43.32
2019-04-16T07:48:29.013Z,43.53
2019-04-16T07:49:29.004Z,42.69
2019-04-16T07:50:29.536Z,43.20
2019-04-16T07:51:28.967Z,42.98
2019-04-16T07:52:29.038Z,43.08
2019-04-16T07:53:28.949Z,43.18
2019-04-16T07:54:28.938Z,42.76
2019-04-16T07:55:28.928Z,43.16
2019-04-16T07:56:28.916Z,42.25
2019-04-16T07:57:28.908Z,42.76
2019-04-16T07:58:28.959Z,42.25
2019-04-16T07:59:32.003Z,41.84
2019-04-16T08:00:28.874Z,42.66
2019-04-16T08:01:28.871Z,42.76
2019-04-16T08:02:28.875Z,42.43
2019-04-16T08:03:28.899Z,42.13
2019-04-16T08:04:29.455Z,41.93
2019-04-16T08:05:28.831Z,41.94
2019-04-16T08:06:28.825Z,41.54
2019-04-16T08:07:28.798Z,42.35
2019-04-16T08:08:28.911Z,42.94
2019-04-16T08:09:29.913Z,41.31
2019-04-16T08:10:28.799Z,41.21
2019-04-16T08:11:28.758Z,41.31
2019-04-16T08:12:30.318Z,41.62
2019-04-16T08:13:33.345Z,41.60
2019-04-16T08:14:29.801Z,42.51
2019-04-16T08:15:28.710Z,41.40
2019-04-16T08:16:28.721Z,41.42
2019-04-16T08:17:28.688Z,42.33
2019-04-16T08:18:28.683Z,42.02
2019-04-16T08:19:36.856Z,42.63
2019-04-16T08:20:29.720Z,42.11
2019-04-16T08:21:28.653Z,41.48
2019-04-16T08:22:28.794Z,40.95
2019-04-16T08:23:28.644Z,41.77
2019-04-16T08:24:28.612Z,41.54
2019-04-16T08:25:33.665Z,40.43
2019-04-16T08:26:29.592Z,40.34
2019-04-16T08:27:28.574Z,40.34
2019-04-16T08:28:28.562Z,40.34
2019-04-16T08:29:28.561Z,41.36
2019-04-16T08:30:31.521Z,41.56
2019-04-16T08:31:29.533Z,40.83
2019-04-16T08:32:28.534Z,41.02
2019-04-16T08:33:29.300Z,40.71
2019-04-16T08:34:28.567Z,39.98
2019-04-16T08:35:28.487Z,40.69
2019-04-16T08:36:28.515Z,40.31
2019-04-16T08:37:28.478Z,40.00
2019-04-16T08:38:28.464Z,40.51
2019-04-16T08:39:28.508Z,40.71
2019-04-16T08:40:28.445Z,40.89
2019-04-16T08:41:28.426Z,41.20
2019-04-16T08:42:30.836Z,40.39
2019-04-16T08:43:29.962Z,40.27
2019-04-16T08:44:28.505Z,40.27
2019-04-16T08:45:28.387Z,39.34
2019-04-16T08:46:28.514Z,39.54
2019-04-16T08:47:28.356Z,39.64
2019-04-16T08:48:28.361Z,39.75
2019-04-16T08:49:28.336Z,39.44
2019-04-16T08:50:28.386Z,39.75
2019-04-16T08:51:30.573Z,40.45
2019-04-16T08:52:28.309Z,39.64
2019-04-16T08:53:28.311Z,39.44
2019-04-16T08:54:28.296Z,40.45
2019-04-16T08:55:28.362Z,39.42
2019-04-16T08:56:28.263Z,39.22
2019-04-16T08:57:31.796Z,38.11
2019-04-16T08:58:28.319Z,38.71
2019-04-16T08:59:28.252Z,38.71
2019-04-16T09:00:28.231Z,38.71
2019-04-16T09:01:28.244Z,39.02
2019-04-16T09:02:28.201Z,39.12
2019-04-16T09:03:30.028Z,38.41
2019-04-16T09:04:28.241Z,38.31
2019-04-16T09:05:28.161Z,38.71
2019-04-16T09:06:28.212Z,38.13
2019-04-16T09:07:28.154Z,38.73
2019-04-16T09:08:28.144Z,38.93
2019-04-16T09:09:28.126Z,38.84
2019-04-16T09:10:30.857Z,39.62
2019-04-16T09:11:28.562Z,38.71
2019-04-16T09:12:28.177Z,39.20
2019-04-16T09:13:28.074Z,38.88
2019-04-16T09:14:28.094Z,37.77
2019-04-16T09:15:28.064Z,37.37
2019-04-16T09:16:28.113Z,37.99
2019-04-16T09:17:28.044Z,38.39
2019-04-16T09:18:28.039Z,37.79
2019-04-16T09:19:28.023Z,38.51
2019-04-16T09:20:28.007Z,38.49
2019-04-16T09:21:28.298Z,38.59
2019-04-16T09:22:28.036Z,38.28
2019-04-16T09:23:27.966Z,38.56
2019-04-16T09:24:27.970Z,38.06
2019-04-16T09:25:27.960Z,37.65
2019-04-16T09:26:27.997Z,38.04
2019-04-16T09:27:30.055Z,37.63
2019-04-16T09:28:31.084Z,38.04
2019-04-16T09:29:27.907Z,37.33
2019-04-16T09:30:27.896Z,37.63
2019-04-16T09:31:27.958Z,37.63
2019-04-16T09:32:28.561Z,36.72
2019-04-16T09:33:30.390Z,37.33
2019-04-16T09:34:28.873Z,37.63
2019-04-16T09:35:27.849Z,36.72
2019-04-16T09:36:27.890Z,37.43
2019-04-16T09:37:28.697Z,37.62
2019-04-16T09:38:27.826Z,37.70
2019-04-16T09:39:27.808Z,37.09
2019-04-16T09:40:27.851Z,36.08
2019-04-16T09:41:27.830Z,35.99
2019-04-16T09:42:27.772Z,36.61
2019-04-16T09:43:27.783Z,36.62
2019-04-16T09:44:31.463Z,36.42
2019-04-16T09:45:28.739Z,37.04
2019-04-16T09:46:50.020Z,36.52
2019-04-16T09:47:32.205Z,37.84
2019-04-16T09:48:27.762Z,36.82
2019-04-16T09:49:27.692Z,36.93
2019-04-16T09:50:27.683Z,37.53
2019-04-16T09:51:27.675Z,37.31
2019-04-16T09:52:27.678Z,37.01
2019-04-16T09:53:34.171Z,37.80
2019-04-16T09:54:28.639Z,36.39
2019-04-16T09:55:27.625Z,36.99
2019-04-16T09:56:29.373Z,36.87
2019-04-16T09:57:30.903Z,35.86
2019-04-16T09:58:27.656Z,35.68
2019-04-16T09:59:27.721Z,37.19
2019-04-16T10:00:27.566Z,36.57
2019-04-16T10:01:27.608Z,36.27
2019-04-16T10:02:27.546Z,36.67
2019-04-16T10:03:28.495Z,36.25
2019-04-16T10:04:27.527Z,36.35
2019-04-16T10:05:29.586Z,36.05
2019-04-16T10:06:27.568Z,36.33
2019-04-16T10:07:27.511Z,36.92
2019-04-16T10:08:29.399Z,36.11
2019-04-16T10:09:27.494Z,35.41
2019-04-16T10:10:28.294Z,35.05
2019-04-16T10:11:27.478Z,36.07
2019-04-16T10:12:27.524Z,36.08
2019-04-16T10:13:31.801Z,36.61
2019-04-16T10:14:28.439Z,36.40
2019-04-16T10:15:27.453Z,37.51
2019-04-16T10:16:27.410Z,37.41
2019-04-16T10:17:27.416Z,38.08
2019-04-16T10:18:27.455Z,36.27
2019-04-16T10:19:27.362Z,36.25
2019-04-16T10:20:27.374Z,36.86
2019-04-16T10:21:29.109Z,36.35
2019-04-16T10:22:27.347Z,36.37
2019-04-16T10:23:27.387Z,37.07
2019-04-16T10:24:27.317Z,36.55
2019-04-16T10:25:27.311Z,36.25
2019-04-16T10:26:27.309Z,36.15
2019-04-16T10:27:31.218Z,36.46
2019-04-16T10:28:28.376Z,36.37
2019-04-16T10:29:27.322Z,36.27
2019-04-16T10:30:29.930Z,36.67
2019-04-16T10:31:27.263Z,36.99
2019-04-16T10:32:27.261Z,36.99
2019-04-16T10:33:27.221Z,37.29
2019-04-16T10:34:27.281Z,36.98
2019-04-16T10:35:27.198Z,37.56
2019-04-16T10:36:27.186Z,36.55
2019-04-16T10:37:27.180Z,36.25
2019-04-16T10:38:27.169Z,36.64
2019-04-16T10:39:27.187Z,36.04
2019-04-16T10:40:27.232Z,36.04
2019-04-16T10:41:27.138Z,37.04
2019-04-16T10:42:27.119Z,36.82
2019-04-16T10:43:27.121Z,36.40
2019-04-16T10:44:27.110Z,36.50
2019-04-16T10:45:27.103Z,35.98
2019-04-16T10:46:27.147Z,35.38
2019-04-16T10:47:27.073Z,34.99
2019-04-16T10:48:27.068Z,35.10
2019-04-16T10:49:27.077Z,35.90
2019-04-16T10:50:27.034Z,35.39
2019-04-16T10:51:27.091Z,35.41
2019-04-16T10:52:27.012Z,35.71
2019-04-16T10:53:27.014Z,35.83
2019-04-16T10:54:27.016Z,36.13
2019-04-16T10:55:27.033Z,35.53
2019-04-16T10:56:27.052Z,36.44
2019-04-16T10:57:27.005Z,36.02
2019-04-16T10:58:26.943Z,36.02
2019-04-16T10:59:26.957Z,35.39
2019-04-16T11:00:27.009Z,35.60
2019-04-16T11:01:30.505Z,36.58
2019-04-16T11:02:28.814Z,35.06
2019-04-16T11:03:28.665Z,34.86
2019-04-16T11:04:26.916Z,34.26
2019-04-16T11:05:26.923Z,35.38
2019-04-16T11:06:26.946Z,36.27
2019-04-16T11:07:26.862Z,35.86
2019-04-16T11:08:26.855Z,35.44
2019-04-16T11:09:26.848Z,35.36
2019-04-16T11:10:26.860Z,34.76
2019-04-16T11:11:26.828Z,34.94
2019-04-16T11:12:26.889Z,34.34
2019-04-16T11:13:26.800Z,34.64
2019-04-16T11:14:26.784Z,33.54
2019-04-16T11:15:26.779Z,35.14
2019-04-16T11:16:26.988Z,33.84
2019-04-16T11:17:26.757Z,34.86
2019-04-16T11:18:26.795Z,34.16
2019-04-16T11:19:26.739Z,34.67
2019-04-16T11:20:26.778Z,35.97
2019-04-16T11:21:26.771Z,34.86
2019-04-16T11:22:26.750Z,34.94
2019-04-16T11:23:26.688Z,35.14
2019-04-16T11:24:26.696Z,34.64
2019-04-16T11:25:26.672Z,34.64
2019-04-16T11:26:26.653Z,34.36
2019-04-16T11:27:26.716Z,34.46
2019-04-16T11:28:26.649Z,33.65
2019-04-16T11:29:26.625Z,34.06
2019-04-16T11:30:26.646Z,34.26
2019-04-16T11:31:26.604Z,34.56
2019-04-16T11:32:26.707Z,34.96
2019-04-16T11:33:27.670Z,34.24
2019-04-16T11:34:26.589Z,34.73
2019-04-16T11:35:26.562Z,33.34
2019-04-16T11:36:30.608Z,33.75
2019-04-16T11:37:27.648Z,35.05
2019-04-16T11:38:26.531Z,35.75
2019-04-16T11:39:26.562Z,35.11
2019-04-16T11:40:26.518Z,34.01
2019-04-16T11:41:26.498Z,34.19
2019-04-16T11:42:26.500Z,34.09
2019-04-16T11:43:26.589Z,33.79
2019-04-16T11:44:26.474Z,32.72
2019-04-16T11:45:26.463Z,33.32
2019-04-16T11:46:26.453Z,34.24
2019-04-16T11:47:28.113Z,33.83
2019-04-16T11:48:26.433Z,33.22
2019-04-16T11:49:26.481Z,33.22
2019-04-16T11:50:26.438Z,33.44
2019-04-16T11:51:26.422Z,34.54
2019-04-16T11:52:26.404Z,35.14
2019-04-16T11:53:26.445Z,34.53
2019-04-16T11:54:26.389Z,34.31
2019-04-16T11:55:26.353Z,34.31
2019-04-16T11:56:26.335Z,34.01
2019-04-16T11:57:26.376Z,33.40
2019-04-16T11:58:26.407Z,33.62
2019-04-16T11:59:26.316Z,34.51
2019-04-16T12:00:26.339Z,34.91
2019-04-16T12:01:26.293Z,34.59
2019-04-16T12:02:26.361Z,33.67
2019-04-16T12:03:26.286Z,34.17
2019-04-16T12:04:26.258Z,33.98
2019-04-16T12:05:26.259Z,33.49
2019-04-16T12:06:28.411Z,34.49
2019-04-16T12:07:26.252Z,33.89
2019-04-16T12:08:26.245Z,34.11
2019-04-16T12:09:26.212Z,32.82
2019-04-16T12:10:26.263Z,34.02
2019-04-16T12:11:26.229Z,33.52
2019-04-16T12:12:26.198Z,33.84
2019-04-16T12:13:26.170Z,33.72
2019-04-16T12:14:30.998Z,33.72
2019-04-16T12:15:27.160Z,35.11
2019-04-16T12:16:26.231Z,35.31
2019-04-16T12:17:26.174Z,33.59
2019-04-16T12:18:26.157Z,34.31
2019-04-16T12:19:26.161Z,33.40
2019-04-16T12:20:26.152Z,33.61
2019-04-16T12:21:26.192Z,33.22
2019-04-16T12:22:26.155Z,33.83
2019-04-16T12:23:26.107Z,33.62
2019-04-16T12:24:26.059Z,35.31
2019-04-16T12:25:26.607Z,35.19
2019-04-16T12:26:26.069Z,34.78
2019-04-16T12:27:26.074Z,33.56
2019-04-16T12:28:26.004Z,33.58
2019-04-16T12:29:33.044Z,33.98
2019-04-16T12:30:25.990Z,33.86
2019-04-16T12:31:26.030Z,33.86
2019-04-16T12:32:27.044Z,33.44
2019-04-16T12:33:25.999Z,34.05
2019-04-16T12:34:25.964Z,32.74
2019-04-16T12:35:25.969Z,32.65
2019-04-16T12:36:25.921Z,32.47
2019-04-16T12:37:25.947Z,32.79
2019-04-16T12:38:25.991Z,34.91
2019-04-16T12:39:25.905Z,34.29
2019-04-16T12:40:25.894Z,33.89
2019-04-16T12:41:25.863Z,34.17
2019-04-16T12:42:25.915Z,33.17
2019-04-16T12:43:25.917Z,32.49
2019-04-16T12:44:25.844Z,33.49
2019-04-16T12:45:25.844Z,34.31
2019-04-16T12:46:25.858Z,34.09
2019-04-16T12:47:25.815Z,32.49
2019-04-16T12:48:25.914Z,32.59
2019-04-16T12:49:25.802Z,33.09
2019-04-16T12:50:25.821Z,33.87
2019-04-16T12:51:25.777Z,33.78
2019-04-16T12:52:25.767Z,32.77